sensor_id;sensor_type;location;lat;lon;timestamp;pressure;altitude;pressure_sealevel;temperature;humidity
59531;BME280;45349;48.692;8.186;2023-06-19T00:00:28;98438.84;;;21.55;59.02
59531;BME280;45349;48.692;8.186;2023-06-19T00:02:55;98452.94;;;21.55;59.79
59531;BME280;45349;48.692;8.186;2023-06-19T00:05:22;98477.38;;;21.64;60.28
59531;BME280;45349;48.692;8.186;2023-06-19T00:07:57;98506.47;;;21.71;60.43
59531;BME280;45349;48.692;8.186;2023-06-19T00:10:24;98500.00;;;21.78;62.08
59531;BME280;45349;48.692;8.186;2023-06-19T00:12:51;98499.44;;;21.76;62.24
59531;BME280;45349;48.692;8.186;2023-06-19T00:15:21;98518.47;;;21.73;62.82
59531;BME280;45349;48.692;8.186;2023-06-19T00:17:47;98511.19;;;21.68;63.33
59531;BME280;45349;48.692;8.186;2023-06-19T00:20:39;98511.72;;;21.59;64.88
59531;BME280;45349;48.692;8.186;2023-06-19T00:23:07;98521.84;;;21.50;66.36
59531;BME280;45349;48.692;8.186;2023-06-19T00:25:36;98518.91;;;21.39;70.47
59531;BME280;45349;48.692;8.186;2023-06-19T00:28:03;98511.22;;;21.19;73.49
59531;BME280;45349;48.692;8.186;2023-06-19T00:30:37;98509.28;;;21.08;75.21
59531;BME280;45349;48.692;8.186;2023-06-19T00:33:05;98501.34;;;20.89;79.02
59531;BME280;45349;48.692;8.186;2023-06-19T00:35:31;98509.06;;;20.72;78.74
59531;BME280;45349;48.692;8.186;2023-06-19T00:37:58;98504.25;;;20.62;79.88
59531;BME280;45349;48.692;8.186;2023-06-19T00:40:29;98516.19;;;20.53;80.25
59531;BME280;45349;48.692;8.186;2023-06-19T00:42:56;98515.63;;;20.44;82.10
59531;BME280;45349;48.692;8.186;2023-06-19T00:45:23;98516.41;;;20.26;84.12
59531;BME280;45349;48.692;8.186;2023-06-19T00:47:50;98523.16;;;20.22;83.72
59531;BME280;45349;48.692;8.186;2023-06-19T00:50:22;98526.69;;;20.16;83.09
59531;BME280;45349;48.692;8.186;2023-06-19T00:52:49;98529.34;;;20.16;84.44
59531;BME280;45349;48.692;8.186;2023-06-19T00:55:22;98536.69;;;20.14;84.18
59531;BME280;45349;48.692;8.186;2023-06-19T00:57:50;98534.41;;;20.17;84.42
59531;BME280;45349;48.692;8.186;2023-06-19T01:00:21;98534.63;;;20.16;86.41
59531;BME280;45349;48.692;8.186;2023-06-19T01:02:48;98524.53;;;20.06;85.50
59531;BME280;45349;48.692;8.186;2023-06-19T01:05:21;98513.38;;;19.97;89.37
59531;BME280;45349;48.692;8.186;2023-06-19T01:08:00;98499.38;;;19.83;92.24
59531;BME280;45349;48.692;8.186;2023-06-19T01:10:33;98477.88;;;19.66;93.72
59531;BME280;45349;48.692;8.186;2023-06-19T01:13:08;98476.13;;;19.53;94.06
59531;BME280;45349;48.692;8.186;2023-06-19T01:15:38;98460.31;;;19.46;95.74
59531;BME280;45349;48.692;8.186;2023-06-19T01:18:07;98454.84;;;19.35;99.07
59531;BME280;45349;48.692;8.186;2023-06-19T01:20:37;98438.84;;;19.23;100.00
59531;BME280;45349;48.692;8.186;2023-06-19T01:23:08;98419.56;;;19.15;100.00
59531;BME280;45349;48.692;8.186;2023-06-19T01:25:35;98413.88;;;19.12;100.00
59531;BME280;45349;48.692;8.186;2023-06-19T01:28:02;98406.16;;;19.10;100.00
59531;BME280;45349;48.692;8.186;2023-06-19T01:30:32;98408.44;;;19.07;99.88
59531;BME280;45349;48.692;8.186;2023-06-19T01:33:03;98407.81;;;19.05;99.05
59531;BME280;45349;48.692;8.186;2023-06-19T01:35:35;98398.88;;;19.06;99.04
59531;BME280;45349;48.692;8.186;2023-06-19T01:38:02;98398.47;;;19.02;100.00
59531;BME280;45349;48.692;8.186;2023-06-19T01:40:34;98396.03;;;19.00;99.10
59531;BME280;45349;48.692;8.186;2023-06-19T01:43:01;98392.56;;;19.00;100.00
59531;BME280;45349;48.692;8.186;2023-06-19T01:45:30;98413.97;;;18.98;100.00
59531;BME280;45349;48.692;8.186;2023-06-19T01:47:59;98412.94;;;18.99;100.00
59531;BME280;45349;48.692;8.186;2023-06-19T01:50:26;98416.38;;;18.93;100.00
59531;BME280;45349;48.692;8.186;2023-06-19T01:52:52;98415.00;;;18.77;100.00
59531;BME280;45349;48.692;8.186;2023-06-19T01:55:21;98413.59;;;18.74;100.00
59531;BME280;45349;48.692;8.186;2023-06-19T01:57:50;98412.63;;;18.62;100.00
59531;BME280;45349;48.692;8.186;2023-06-19T02:00:21;98401.53;;;18.40;100.00
59531;BME280;45349;48.692;8.186;2023-06-19T02:02:48;98408.63;;;18.39;100.00
59531;BME280;45349;48.692;8.186;2023-06-19T02:05:22;98404.38;;;18.32;100.00
59531;BME280;45349;48.692;8.186;2023-06-19T02:07:49;98413.13;;;18.25;100.00
59531;BME280;45349;48.692;8.186;2023-06-19T02:10:22;98409.06;;;18.23;100.00
59531;BME280;45349;48.692;8.186;2023-06-19T02:12:49;98404.19;;;18.20;100.00
59531;BME280;45349;48.692;8.186;2023-06-19T02:15:22;98420.44;;;18.17;100.00
59531;BME280;45349;48.692;8.186;2023-06-19T02:17:49;98422.91;;;18.18;100.00
59531;BME280;45349;48.692;8.186;2023-06-19T02:20:22;98433.06;;;18.21;100.00
59531;BME280;45349;48.692;8.186;2023-06-19T02:22:50;98419.03;;;18.21;100.00
59531;BME280;45349;48.692;8.186;2023-06-19T02:25:22;98424.13;;;18.22;100.00
59531;BME280;45349;48.692;8.186;2023-06-19T02:27:49;98423.09;;;18.17;100.00
59531;BME280;45349;48.692;8.186;2023-06-19T02:30:21;98422.47;;;18.14;100.00
59531;BME280;45349;48.692;8.186;2023-06-19T02:32:48;98419.03;;;18.14;100.00
59531;BME280;45349;48.692;8.186;2023-06-19T02:35:39;98417.00;;;18.16;100.00
59531;BME280;45349;48.692;8.186;2023-06-19T02:38:07;98421.06;;;18.05;100.00
59531;BME280;45349;48.692;8.186;2023-06-19T02:40:33;98421.47;;;18.02;100.00
59531;BME280;45349;48.692;8.186;2023-06-19T02:43:01;98413.13;;;18.05;100.00
59531;BME280;45349;48.692;8.186;2023-06-19T02:45:27;98413.34;;;18.10;100.00
59531;BME280;45349;48.692;8.186;2023-06-19T02:47:54;98403.59;;;18.11;100.00
59531;BME280;45349;48.692;8.186;2023-06-19T02:50:22;98393.63;;;18.20;100.00
59531;BME280;45349;48.692;8.186;2023-06-19T02:52:48;98396.81;;;18.49;96.60
59531;BME280;45349;48.692;8.186;2023-06-19T02:55:21;98404.28;;;18.65;95.36
59531;BME280;45349;48.692;8.186;2023-06-19T02:57:48;98402.63;;;18.71;95.18
59531;BME280;45349;48.692;8.186;2023-06-19T03:03:56;98395.03;;;18.88;94.42
59531;BME280;45349;48.692;8.186;2023-06-19T03:06:23;98394.63;;;18.91;94.31
59531;BME280;45349;48.692;8.186;2023-06-19T03:08:51;98402.34;;;18.93;94.35
59531;BME280;45349;48.692;8.186;2023-06-19T03:11:18;98396.06;;;18.87;93.98
59531;BME280;45349;48.692;8.186;2023-06-19T03:13:46;98393.03;;;18.83;95.39
59531;BME280;45349;48.692;8.186;2023-06-19T03:16:13;98396.31;;;18.79;94.57
59531;BME280;45349;48.692;8.186;2023-06-19T03:18:41;98391.44;;;18.76;94.54
59531;BME280;45349;48.692;8.186;2023-06-19T03:21:09;98389.59;;;18.76;96.25
59531;BME280;45349;48.692;8.186;2023-06-19T03:23:35;98388.78;;;18.76;94.86
59531;BME280;45349;48.692;8.186;2023-06-19T03:26:02;98387.13;;;18.88;92.23
59531;BME280;45349;48.692;8.186;2023-06-19T03:28:29;98396.22;;;19.06;90.98
59531;BME280;45349;48.692;8.186;2023-06-19T03:30:58;98400.22;;;19.15;91.02
59531;BME280;45349;48.692;8.186;2023-06-19T03:33:24;98408.75;;;19.17;91.87
59531;BME280;45349;48.692;8.186;2023-06-19T03:35:51;98411.22;;;19.12;92.71
59531;BME280;45349;48.692;8.186;2023-06-19T03:38:33;98416.94;;;19.09;92.39
59531;BME280;45349;48.692;8.186;2023-06-19T03:41:01;98410.94;;;19.27;87.38
59531;BME280;45349;48.692;8.186;2023-06-19T03:43:28;98422.69;;;19.63;84.38
59531;BME280;45349;48.692;8.186;2023-06-19T03:45:54;98430.81;;;19.68;84.80
59531;BME280;45349;48.692;8.186;2023-06-19T03:48:21;98435.06;;;19.76;84.97
59531;BME280;45349;48.692;8.186;2023-06-19T03:50:47;98440.19;;;20.03;82.44
59531;BME280;45349;48.692;8.186;2023-06-19T03:53:14;98424.38;;;20.15;82.08
59531;BME280;45349;48.692;8.186;2023-06-19T03:55:42;98414.28;;;20.24;80.83
59531;BME280;45349;48.692;8.186;2023-06-19T03:58:11;98421.50;;;20.35;81.43
59531;BME280;45349;48.692;8.186;2023-06-19T04:00:37;98431.91;;;20.37;80.94
59531;BME280;45349;48.692;8.186;2023-06-19T04:03:04;98424.16;;;20.35;81.03
59531;BME280;45349;48.692;8.186;2023-06-19T04:05:31;98439.03;;;20.36;80.31
59531;BME280;45349;48.692;8.186;2023-06-19T04:07:57;98436.34;;;20.43;79.61
59531;BME280;45349;48.692;8.186;2023-06-19T04:10:24;98434.19;;;20.52;78.62
59531;BME280;45349;48.692;8.186;2023-06-19T04:12:52;98444.50;;;20.60;77.22
59531;BME280;45349;48.692;8.186;2023-06-19T04:15:22;98450.13;;;20.70;77.30
59531;BME280;45349;48.692;8.186;2023-06-19T04:17:48;98452.25;;;20.80;75.72
59531;BME280;45349;48.692;8.186;2023-06-19T04:20:40;98461.03;;;20.81;76.85
59531;BME280;45349;48.692;8.186;2023-06-19T04:23:06;98466.94;;;20.83;76.05
59531;BME280;45349;48.692;8.186;2023-06-19T04:25:34;98456.09;;;20.84;76.85
59531;BME280;45349;48.692;8.186;2023-06-19T04:28:02;98454.75;;;20.93;76.00
59531;BME280;45349;48.692;8.186;2023-06-19T04:30:29;98456.75;;;20.98;76.75
59531;BME280;45349;48.692;8.186;2023-06-19T04:32:57;98449.84;;;20.97;76.60
59531;BME280;45349;48.692;8.186;2023-06-19T04:35:23;98446.63;;;21.07;76.23
59531;BME280;45349;48.692;8.186;2023-06-19T04:37:50;98450.84;;;21.15;76.28
59531;BME280;45349;48.692;8.186;2023-06-19T04:40:22;98446.72;;;21.19;75.85
59531;BME280;45349;48.692;8.186;2023-06-19T04:42:50;98426.63;;;21.23;76.16
59531;BME280;45349;48.692;8.186;2023-06-19T04:45:23;98424.69;;;21.30;75.39
59531;BME280;45349;48.692;8.186;2023-06-19T04:47:49;98424.81;;;21.35;74.42
59531;BME280;45349;48.692;8.186;2023-06-19T04:50:21;98419.63;;;21.41;74.26
59531;BME280;45349;48.692;8.186;2023-06-19T04:52:48;98422.56;;;21.51;74.29
59531;BME280;45349;48.692;8.186;2023-06-19T04:55:21;98409.28;;;21.51;73.51
59531;BME280;45349;48.692;8.186;2023-06-19T04:57:50;98411.84;;;21.58;71.48
59531;BME280;45349;48.692;8.186;2023-06-19T05:00:23;98410.72;;;21.65;70.67
59531;BME280;45349;48.692;8.186;2023-06-19T05:02:50;98416.41;;;21.69;70.14
59531;BME280;45349;48.692;8.186;2023-06-19T05:05:22;98419.28;;;21.79;70.13
59531;BME280;45349;48.692;8.186;2023-06-19T05:07:48;98429.44;;;21.82;69.30
59531;BME280;45349;48.692;8.186;2023-06-19T05:10:39;98415.81;;;21.91;68.12
59531;BME280;45349;48.692;8.186;2023-06-19T05:13:06;98416.88;;;22.02;69.61
59531;BME280;45349;48.692;8.186;2023-06-19T05:15:34;98415.59;;;22.04;68.44
59531;BME280;45349;48.692;8.186;2023-06-19T05:18:00;98415.63;;;22.16;67.63
59531;BME280;45349;48.692;8.186;2023-06-19T05:20:28;98410.88;;;22.18;66.11
59531;BME280;45349;48.692;8.186;2023-06-19T05:22:54;98421.59;;;22.35;65.32
59531;BME280;45349;48.692;8.186;2023-06-19T05:25:21;98421.94;;;22.39;65.68
59531;BME280;45349;48.692;8.186;2023-06-19T05:27:48;98427.03;;;22.52;64.38
59531;BME280;45349;48.692;8.186;2023-06-19T05:30:41;98416.50;;;22.58;63.68
59531;BME280;45349;48.692;8.186;2023-06-19T05:33:07;98418.13;;;22.70;63.91
59531;BME280;45349;48.692;8.186;2023-06-19T05:35:34;98409.41;;;22.75;63.75
59531;BME280;45349;48.692;8.186;2023-06-19T05:38:01;98411.75;;;22.72;63.49
59531;BME280;45349;48.692;8.186;2023-06-19T05:40:28;98410.97;;;22.88;62.78
59531;BME280;45349;48.692;8.186;2023-06-19T05:42:54;98411.94;;;23.23;61.87
59531;BME280;45349;48.692;8.186;2023-06-19T05:45:23;98410.09;;;23.40;61.08
59531;BME280;45349;48.692;8.186;2023-06-19T05:47:51;98413.09;;;23.61;62.47
59531;BME280;45349;48.692;8.186;2023-06-19T05:50:22;98411.22;;;23.44;61.25
59531;BME280;45349;48.692;8.186;2023-06-19T05:52:48;98429.47;;;23.53;61.40
59531;BME280;45349;48.692;8.186;2023-06-19T05:55:19;98428.69;;;23.52;59.38
59531;BME280;45349;48.692;8.186;2023-06-19T05:57:45;98437.38;;;23.48;60.07
59531;BME280;45349;48.692;8.186;2023-06-19T06:00:13;98441.66;;;23.49;61.87
59531;BME280;45349;48.692;8.186;2023-06-19T06:02:40;98440.88;;;23.48;60.16
59531;BME280;45349;48.692;8.186;2023-06-19T06:05:09;98455.31;;;23.52;61.91
59531;BME280;45349;48.692;8.186;2023-06-19T06:07:36;98455.09;;;23.71;61.36
59531;BME280;45349;48.692;8.186;2023-06-19T06:10:03;98454.53;;;23.86;59.82
59531;BME280;45349;48.692;8.186;2023-06-19T06:12:30;98464.72;;;24.06;61.36
59531;BME280;45349;48.692;8.186;2023-06-19T06:14:59;98468.22;;;24.07;60.63
59531;BME280;45349;48.692;8.186;2023-06-19T06:17:26;98469.88;;;23.96;62.76
59531;BME280;45349;48.692;8.186;2023-06-19T06:19:53;98473.94;;;23.98;64.29
59531;BME280;45349;48.692;8.186;2023-06-19T06:22:21;98476.13;;;23.84;61.28
59531;BME280;45349;48.692;8.186;2023-06-19T06:24:47;98481.75;;;23.88;62.31
59531;BME280;45349;48.692;8.186;2023-06-19T06:27:14;98486.84;;;23.89;61.55
59531;BME280;45349;48.692;8.186;2023-06-19T06:29:41;98492.97;;;23.90;62.21
59531;BME280;45349;48.692;8.186;2023-06-19T06:32:09;98494.59;;;23.91;61.77
59531;BME280;45349;48.692;8.186;2023-06-19T06:34:35;98501.56;;;23.92;63.28
59531;BME280;45349;48.692;8.186;2023-06-19T06:37:02;98496.91;;;23.99;64.02
59531;BME280;45349;48.692;8.186;2023-06-19T06:39:31;98512.91;;;23.87;61.98
59531;BME280;45349;48.692;8.186;2023-06-19T06:41:57;98515.16;;;24.08;60.56
59531;BME280;45349;48.692;8.186;2023-06-19T06:44:24;98515.31;;;24.18;57.90
59531;BME280;45349;48.692;8.186;2023-06-19T06:46:50;98526.38;;;24.27;60.33
59531;BME280;45349;48.692;8.186;2023-06-19T06:49:17;98514.19;;;24.14;58.42
59531;BME280;45349;48.692;8.186;2023-06-19T06:51:43;98518.16;;;24.28;58.70
59531;BME280;45349;48.692;8.186;2023-06-19T06:54:11;98514.25;;;24.36;59.24
59531;BME280;45349;48.692;8.186;2023-06-19T06:56:38;98519.09;;;24.39;60.19
59531;BME280;45349;48.692;8.186;2023-06-19T06:59:05;98531.78;;;24.32;60.38
59531;BME280;45349;48.692;8.186;2023-06-19T07:01:32;98530.97;;;23.97;60.20
59531;BME280;45349;48.692;8.186;2023-06-19T07:03:58;98532.97;;;23.90;61.17
59531;BME280;45349;48.692;8.186;2023-06-19T07:06:25;98539.44;;;23.94;58.82
59531;BME280;45349;48.692;8.186;2023-06-19T07:08:51;98542.13;;;23.65;60.94
59531;BME280;45349;48.692;8.186;2023-06-19T07:11:18;98541.34;;;23.65;61.30
59531;BME280;45349;48.692;8.186;2023-06-19T07:13:46;98547.44;;;23.65;61.25
59531;BME280;45349;48.692;8.186;2023-06-19T07:16:12;98541.78;;;23.33;63.49
59531;BME280;45349;48.692;8.186;2023-06-19T07:18:39;98542.88;;;23.49;62.95
59531;BME280;45349;48.692;8.186;2023-06-19T07:21:11;98551.53;;;23.15;64.31
59531;BME280;45349;48.692;8.186;2023-06-19T07:23:39;98551.69;;;23.49;65.18
59531;BME280;45349;48.692;8.186;2023-06-19T07:26:05;98552.88;;;23.70;65.34
59531;BME280;45349;48.692;8.186;2023-06-19T07:28:32;98555.06;;;24.02;64.06
59531;BME280;45349;48.692;8.186;2023-06-19T07:31:03;98549.75;;;24.37;62.33
59531;BME280;45349;48.692;8.186;2023-06-19T07:33:29;98547.84;;;24.88;60.70
59531;BME280;45349;48.692;8.186;2023-06-19T07:35:56;98563.19;;;25.43;60.17
59531;BME280;45349;48.692;8.186;2023-06-19T07:38:23;98561.81;;;25.90;56.86
59531;BME280;45349;48.692;8.186;2023-06-19T07:40:49;98561.94;;;26.05;57.43
59531;BME280;45349;48.692;8.186;2023-06-19T07:43:16;98569.78;;;26.45;54.08
59531;BME280;45349;48.692;8.186;2023-06-19T07:45:43;98573.19;;;26.07;55.82
59531;BME280;45349;48.692;8.186;2023-06-19T07:48:11;98574.56;;;25.83;56.33
59531;BME280;45349;48.692;8.186;2023-06-19T07:50:38;98573.72;;;25.77;57.66
59531;BME280;45349;48.692;8.186;2023-06-19T07:53:04;98576.19;;;25.34;58.14
59531;BME280;45349;48.692;8.186;2023-06-19T07:55:32;98568.72;;;25.36;57.48
59531;BME280;45349;48.692;8.186;2023-06-19T07:58:00;98573.75;;;24.88;59.96
59531;BME280;45349;48.692;8.186;2023-06-19T08:00:26;98567.09;;;25.13;59.20
59531;BME280;45349;48.692;8.186;2023-06-19T08:02:53;98572.75;;;25.16;59.17
59531;BME280;45349;48.692;8.186;2023-06-19T08:05:23;98572.00;;;24.99;59.97
59531;BME280;45349;48.692;8.186;2023-06-19T08:07:49;98574.88;;;25.37;58.39
59531;BME280;45349;48.692;8.186;2023-06-19T08:10:22;98565.31;;;25.18;59.47
59531;BME280;45349;48.692;8.186;2023-06-19T08:12:48;98577.03;;;25.17;59.45
59531;BME280;45349;48.692;8.186;2023-06-19T08:15:40;98575.00;;;25.25;59.87
59531;BME280;45349;48.692;8.186;2023-06-19T08:18:07;98575.19;;;25.40;59.46
59531;BME280;45349;48.692;8.186;2023-06-19T08:20:35;98570.28;;;25.32;58.59
59531;BME280;45349;48.692;8.186;2023-06-19T08:23:01;98562.56;;;25.58;58.18
59531;BME280;45349;48.692;8.186;2023-06-19T08:25:28;98568.22;;;25.89;56.29
59531;BME280;45349;48.692;8.186;2023-06-19T08:27:54;98568.22;;;25.61;57.24
59531;BME280;45349;48.692;8.186;2023-06-19T08:30:22;98564.75;;;25.16;57.04
59531;BME280;45349;48.692;8.186;2023-06-19T08:32:48;98577.81;;;25.85;57.02
59531;BME280;45349;48.692;8.186;2023-06-19T08:35:42;98575.84;;;26.02;55.60
59531;BME280;45349;48.692;8.186;2023-06-19T08:38:09;98565.44;;;25.51;58.88
59531;BME280;45349;48.692;8.186;2023-06-19T08:40:36;98569.97;;;25.50;59.06
59531;BME280;45349;48.692;8.186;2023-06-19T08:43:03;98566.09;;;25.19;59.27
59531;BME280;45349;48.692;8.186;2023-06-19T08:45:29;98585.31;;;25.60;59.10
59531;BME280;45349;48.692;8.186;2023-06-19T08:47:59;98582.09;;;25.86;58.48
59531;BME280;45349;48.692;8.186;2023-06-19T08:50:29;98587.19;;;25.87;58.28
59531;BME280;45349;48.692;8.186;2023-06-19T08:52:58;98575.41;;;25.83;59.17
59531;BME280;45349;48.692;8.186;2023-06-19T08:55:24;98583.25;;;26.22;58.85
59531;BME280;45349;48.692;8.186;2023-06-19T08:57:51;98591.28;;;25.95;58.79
59531;BME280;45349;48.692;8.186;2023-06-19T09:00:26;98595.59;;;26.29;57.31
59531;BME280;45349;48.692;8.186;2023-06-19T09:02:59;98581.63;;;25.94;57.80
59531;BME280;45349;48.692;8.186;2023-06-19T09:05:25;98587.03;;;25.72;58.57
59531;BME280;45349;48.692;8.186;2023-06-19T09:07:58;98579.13;;;25.82;57.29
59531;BME280;45349;48.692;8.186;2023-06-19T09:10:26;98573.00;;;25.87;58.19
59531;BME280;45349;48.692;8.186;2023-06-19T09:12:57;98580.34;;;26.24;56.75
59531;BME280;45349;48.692;8.186;2023-06-19T09:15:27;98592.03;;;26.50;56.45
59531;BME280;45349;48.692;8.186;2023-06-19T09:18:00;98582.69;;;26.58;56.26
59531;BME280;45349;48.692;8.186;2023-06-19T09:20:27;98576.25;;;26.87;54.25
59531;BME280;45349;48.692;8.186;2023-06-19T09:22:54;98583.06;;;27.15;53.38
59531;BME280;45349;48.692;8.186;2023-06-19T09:25:23;98585.16;;;27.08;52.38
59531;BME280;45349;48.692;8.186;2023-06-19T09:27:52;98583.91;;;27.31;51.23
59531;BME280;45349;48.692;8.186;2023-06-19T09:30:22;98576.94;;;27.30;51.11
59531;BME280;45349;48.692;8.186;2023-06-19T09:32:49;98583.16;;;27.36;50.88
59531;BME280;45349;48.692;8.186;2023-06-19T09:35:22;98568.47;;;26.90;52.82
59531;BME280;45349;48.692;8.186;2023-06-19T09:37:51;98571.59;;;27.30;52.68
59531;BME280;45349;48.692;8.186;2023-06-19T09:40:23;98568.25;;;27.55;51.42
59531;BME280;45349;48.692;8.186;2023-06-19T09:42:54;98569.63;;;27.89;51.58
59531;BME280;45349;48.692;8.186;2023-06-19T09:45:29;98563.94;;;27.54;50.30
59531;BME280;45349;48.692;8.186;2023-06-19T09:47:57;98571.19;;;27.59;51.20
59531;BME280;45349;48.692;8.186;2023-06-19T09:50:40;98561.25;;;27.54;49.99
59531;BME280;45349;48.692;8.186;2023-06-19T09:53:09;98554.84;;;27.55;50.36
59531;BME280;45349;48.692;8.186;2023-06-19T09:55:38;98554.22;;;26.79;51.90
59531;BME280;45349;48.692;8.186;2023-06-19T09:58:06;98560.19;;;26.92;52.08
59531;BME280;45349;48.692;8.186;2023-06-19T10:00:33;98558.97;;;27.20;52.59
59531;BME280;45349;48.692;8.186;2023-06-19T10:03:00;98557.69;;;27.44;53.02
59531;BME280;45349;48.692;8.186;2023-06-19T10:05:28;98556.38;;;27.41;51.90
59531;BME280;45349;48.692;8.186;2023-06-19T10:07:55;98554.69;;;27.19;52.32
59531;BME280;45349;48.692;8.186;2023-06-19T10:10:25;98556.78;;;27.07;52.85
59531;BME280;45349;48.692;8.186;2023-06-19T10:12:56;98552.06;;;27.40;53.50
59531;BME280;45349;48.692;8.186;2023-06-19T10:15:24;98547.63;;;27.82;52.32
59531;BME280;45349;48.692;8.186;2023-06-19T10:17:53;98549.53;;;28.12;51.82
59531;BME280;45349;48.692;8.186;2023-06-19T10:20:27;98554.88;;;27.92;49.72
59531;BME280;45349;48.692;8.186;2023-06-19T10:23:01;98550.84;;;28.46;49.51
59531;BME280;45349;48.692;8.186;2023-06-19T10:25:29;98552.47;;;28.47;48.85
59531;BME280;45349;48.692;8.186;2023-06-19T10:27:58;98548.97;;;28.10;50.53
59531;BME280;45349;48.692;8.186;2023-06-19T10:30:25;98548.72;;;28.17;50.36
59531;BME280;45349;48.692;8.186;2023-06-19T10:32:52;98550.34;;;28.03;51.25
59531;BME280;45349;48.692;8.186;2023-06-19T10:35:22;98541.19;;;27.78;50.84
59531;BME280;45349;48.692;8.186;2023-06-19T10:37:50;98531.81;;;27.96;49.75
59531;BME280;45349;48.692;8.186;2023-06-19T10:40:22;98540.88;;;27.69;50.73
59531;BME280;45349;48.692;8.186;2023-06-19T10:42:48;98532.59;;;27.70;52.29
59531;BME280;45349;48.692;8.186;2023-06-19T10:45:41;98531.00;;;28.01;50.68
59531;BME280;45349;48.692;8.186;2023-06-19T10:48:08;98527.00;;;28.13;50.17
59531;BME280;45349;48.692;8.186;2023-06-19T10:50:37;98540.94;;;28.10;50.60
59531;BME280;45349;48.692;8.186;2023-06-19T10:53:06;98531.84;;;28.17;50.37
59531;BME280;45349;48.692;8.186;2023-06-19T10:55:32;98529.38;;;28.36;49.41
59531;BME280;45349;48.692;8.186;2023-06-19T10:57:59;98521.63;;;28.29;48.89
59531;BME280;45349;48.692;8.186;2023-06-19T11:00:27;98517.22;;;28.69;48.09
59531;BME280;45349;48.692;8.186;2023-06-19T11:02:56;98520.78;;;28.44;47.72
59531;BME280;45349;48.692;8.186;2023-06-19T11:05:24;98511.38;;;28.57;48.24
59531;BME280;45349;48.692;8.186;2023-06-19T11:07:52;98504.59;;;28.91;47.61
59531;BME280;45349;48.692;8.186;2023-06-19T11:10:23;98512.34;;;28.92;49.44
59531;BME280;45349;48.692;8.186;2023-06-19T11:12:53;98508.94;;;28.76;46.99
59531;BME280;45349;48.692;8.186;2023-06-19T11:15:28;98507.03;;;28.66;48.80
59531;BME280;45349;48.692;8.186;2023-06-19T11:17:56;98510.78;;;28.65;46.92
59531;BME280;45349;48.692;8.186;2023-06-19T11:20:23;98506.84;;;28.32;47.57
59531;BME280;45349;48.692;8.186;2023-06-19T11:22:55;98494.22;;;28.48;46.69
59531;BME280;45349;48.692;8.186;2023-06-19T11:25:23;98500.53;;;28.88;46.73
59531;BME280;45349;48.692;8.186;2023-06-19T11:27:49;98496.69;;;29.10;45.25
59531;BME280;45349;48.692;8.186;2023-06-19T11:30:30;98494.19;;;28.58;46.50
59531;BME280;45349;48.692;8.186;2023-06-19T11:32:58;98483.16;;;28.65;46.96
59531;BME280;45349;48.692;8.186;2023-06-19T11:35:32;98487.84;;;29.09;45.24
59531;BME280;45349;48.692;8.186;2023-06-19T11:38:01;98477.56;;;28.51;47.28
59531;BME280;45349;48.692;8.186;2023-06-19T11:40:28;98481.81;;;28.62;47.86
59531;BME280;45349;48.692;8.186;2023-06-19T11:43:05;98476.16;;;28.79;46.90
59531;BME280;45349;48.692;8.186;2023-06-19T11:45:32;98479.25;;;29.07;46.42
59531;BME280;45349;48.692;8.186;2023-06-19T11:48:04;98479.63;;;28.80;46.18
59531;BME280;45349;48.692;8.186;2023-06-19T11:50:31;98473.19;;;28.81;46.33
59531;BME280;45349;48.692;8.186;2023-06-19T11:52:58;98478.22;;;29.48;44.77
59531;BME280;45349;48.692;8.186;2023-06-19T11:55:25;98478.34;;;29.67;44.44
59531;BME280;45349;48.692;8.186;2023-06-19T11:57:52;98474.63;;;29.18;44.88
59531;BME280;45349;48.692;8.186;2023-06-19T12:00:22;98462.16;;;28.87;45.62
59531;BME280;45349;48.692;8.186;2023-06-19T12:02:48;98455.78;;;29.63;44.70
59531;BME280;45349;48.692;8.186;2023-06-19T12:05:20;98460.56;;;30.06;43.30
59531;BME280;45349;48.692;8.186;2023-06-19T12:07:47;98453.56;;;30.05;42.39
59531;BME280;45349;48.692;8.186;2023-06-19T12:10:13;98459.91;;;30.19;43.16
59531;BME280;45349;48.692;8.186;2023-06-19T12:12:40;98452.81;;;30.29;40.68
59531;BME280;45349;48.692;8.186;2023-06-19T12:15:07;98465.75;;;29.97;41.11
59531;BME280;45349;48.692;8.186;2023-06-19T12:17:34;98462.09;;;29.83;44.03
59531;BME280;45349;48.692;8.186;2023-06-19T12:20:01;98449.81;;;30.30;42.40
59531;BME280;45349;48.692;8.186;2023-06-19T12:22:32;98448.66;;;30.85;39.94
59531;BME280;45349;48.692;8.186;2023-06-19T12:24:59;98450.97;;;30.48;40.75
59531;BME280;45349;48.692;8.186;2023-06-19T12:27:25;98443.69;;;29.95;43.10
59531;BME280;45349;48.692;8.186;2023-06-19T12:29:52;98438.13;;;30.16;43.23
59531;BME280;45349;48.692;8.186;2023-06-19T12:32:19;98442.81;;;29.30;44.13
59531;BME280;45349;48.692;8.186;2023-06-19T12:34:46;98439.44;;;29.59;44.08
59531;BME280;45349;48.692;8.186;2023-06-19T12:37:14;98444.09;;;30.13;43.81
59531;BME280;45349;48.692;8.186;2023-06-19T12:39:44;98442.31;;;30.76;42.21
59531;BME280;45349;48.692;8.186;2023-06-19T12:42:10;98439.91;;;30.50;41.53
59531;BME280;45349;48.692;8.186;2023-06-19T12:44:39;98444.94;;;30.81;40.49
59531;BME280;45349;48.692;8.186;2023-06-19T12:47:06;98461.38;;;30.55;41.15
59531;BME280;45349;48.692;8.186;2023-06-19T12:49:33;98456.13;;;30.21;42.19
59531;BME280;45349;48.692;8.186;2023-06-19T12:52:00;98462.31;;;29.86;42.97
59531;BME280;45349;48.692;8.186;2023-06-19T12:54:26;98461.44;;;29.96;43.23
59531;BME280;45349;48.692;8.186;2023-06-19T12:56:54;98462.84;;;29.88;43.37
59531;BME280;45349;48.692;8.186;2023-06-19T12:59:21;98461.13;;;29.98;42.81
59531;BME280;45349;48.692;8.186;2023-06-19T13:01:48;98458.34;;;30.38;41.28
59531;BME280;45349;48.692;8.186;2023-06-19T13:04:15;98459.47;;;30.61;40.88
59531;BME280;45349;48.692;8.186;2023-06-19T13:06:41;98458.53;;;30.71;40.53
59531;BME280;45349;48.692;8.186;2023-06-19T13:09:08;98446.91;;;30.27;41.88
59531;BME280;45349;48.692;8.186;2023-06-19T13:11:35;98448.97;;;30.59;40.83